Time;durP1;ratioP1;P1;durP2;ratioP2;P2;SDS_P1;SDS_P2;PMS_P1;PMS_P2;Temp;Humidity;BMP_temperature;BMP_pressure;BME280_temperature;BME280_humidity;BME280_pressure;Samples;Min_cycle;Max_cycle;Signal;HPM_P1;HPM_P2
2021/10/03 00:01:59;;;;;;;1124.85;999.90;;;;;;;;;;5009079;28;20096;-79
2021/10/03 00:04:25;;;;;;;;;;;;;;;;;;5007510;28;20400;-79
2021/10/03 00:06:52;;;;;;;1091.45;981.90;;;;;;;;;;5007357;28;19916;-81
2021/10/03 00:09:18;;;;;;;1108.63;996.47;;;;;;;;;;5007014;28;20129;-83
2021/10/03 00:11:48;;;;;;;1111.45;998.22;;;;;;;;;;5007306;28;20017;-79
2021/10/03 00:14:14;;;;;;;1117.03;999.88;;;;;;;;;;5006984;28;20023;-79
2021/10/03 00:16:41;;;;;;;1119.80;999.90;;;;;;;;;;5008606;28;20026;-79
2021/10/03 00:19:07;;;;;;;1115.97;999.70;;;;;;;;;;5007296;28;20049;-81
2021/10/03 00:21:33;;;;;;;1125.13;999.90;;;;;;;;;;5009018;28;20041;-79
2021/10/03 00:23:59;;;;;;;1120.53;999.90;;;;;;;;;;5011194;28;20168;-78
2021/10/03 00:26:25;;;;;;;1127.72;999.90;;;;;;;;;;5008123;28;20026;-79
2021/10/03 00:28:51;;;;;;;1126.72;999.90;;;;;;;;;;5006798;28;20513;-82
2021/10/03 00:31:17;;;;;;;1123.88;999.90;;;;;;;;;;5006864;28;20289;-81
2021/10/03 00:33:43;;;;;;;1130.80;999.90;;;;;;;;;;5006821;28;20022;-79
2021/10/03 00:36:09;;;;;;;1123.40;999.90;;;;;;;;;;5005252;28;20033;-81
2021/10/03 00:38:35;;;;;;;1126.25;999.90;;;;;;;;;;5006569;28;20786;-79
2021/10/03 00:41:02;;;;;;;1124.80;999.90;;;;;;;;;;5006844;28;20018;-80
2021/10/03 00:43:28;;;;;;;1126.97;999.90;;;;;;;;;;5013305;28;20397;-79
2021/10/03 00:45:54;;;;;;;1129.50;999.90;;;;;;;;;;5007102;28;20022;-79
2021/10/03 00:48:20;;;;;;;1122.20;999.90;;;;;;;;;;5006621;28;20390;-83
2021/10/03 00:50:47;;;;;;;1123.15;999.90;;;;;;;;;;5008580;28;20227;-80
2021/10/03 00:53:13;;;;;;;1123.93;999.90;;;;;;;;;;5007230;28;20478;-77
2021/10/03 00:55:39;;;;;;;1131.70;999.90;;;;;;;;;;5007868;28;20474;-79
2021/10/03 00:58:05;;;;;;;1131.38;999.90;;;;;;;;;;5007142;28;20029;-80
2021/10/03 01:00:32;;;;;;;1123.07;999.90;;;;;;;;;;5006303;28;20026;-81
2021/10/03 01:02:59;;;;;;;1125.72;999.90;;;;;;;;;;5005885;28;20088;-81
2021/10/03 01:05:25;;;;;;;1119.57;999.90;;;;;;;;;;5004430;28;20725;-81
2021/10/03 01:07:52;;;;;;;1124.90;999.90;;;;;;;;;;5007311;28;20018;-82
2021/10/03 01:10:22;;;;;;;1123.78;999.90;;;;;;;;;;5006098;28;20121;-78
2021/10/03 01:12:52;;;;;;;1123.28;999.90;;;;;;;;;;5007062;28;20022;-78
2021/10/03 01:15:18;;;;;;;1124.22;999.90;;;;;;;;;;5007526;28;20394;-82
2021/10/03 01:17:44;;;;;;;1125.85;999.90;;;;;;;;;;5005303;28;20018;-78
2021/10/03 01:20:10;;;;;;;1129.25;999.90;;;;;;;;;;5004960;28;20429;-81
2021/10/03 01:22:37;;;;;;;1134.10;999.90;;;;;;;;;;5006059;28;20040;-79
2021/10/03 01:25:04;;;;;;;1131.10;999.90;;;;;;;;;;5015582;28;20425;-82
2021/10/03 01:27:30;;;;;;;1133.88;999.90;;;;;;;;;;5004503;28;20030;-81
2021/10/03 01:29:55;;;;;;;1128.60;999.90;;;;;;;;;;4998873;28;20022;-79
2021/10/03 01:32:21;;;;;;;1131.72;999.90;;;;;;;;;;5006194;28;20032;-81
2021/10/03 01:34:47;;;;;;;1128.57;999.90;;;;;;;;;;5006241;28;20025;-82
2021/10/03 01:37:14;;;;;;;1135.15;999.90;;;;;;;;;;5011841;28;20506;-81
2021/10/03 01:39:40;;;;;;;1136.75;999.90;;;;;;;;;;5011855;28;20124;-80
2021/10/03 01:42:06;;;;;;;1136.50;999.90;;;;;;;;;;5011284;28;20052;-81
2021/10/03 01:44:32;;;;;;;1136.45;999.90;;;;;;;;;;5011860;28;20032;-79
2021/10/03 01:46:58;;;;;;;1138.90;999.90;;;;;;;;;;5012161;28;20080;-77
2021/10/03 01:49:24;;;;;;;1138.60;999.90;;;;;;;;;;5013589;28;20038;-82
2021/10/03 01:51:50;;;;;;;1139.68;999.90;;;;;;;;;;5012064;28;20032;-79
2021/10/03 01:54:17;;;;;;;1135.32;999.90;;;;;;;;;;5011355;28;20033;-80
2021/10/03 01:56:43;;;;;;;1138.68;999.90;;;;;;;;;;5013739;28;20026;-80
2021/10/03 01:59:09;;;;;;;1141.80;999.90;;;;;;;;;;5012059;28;20477;-82
2021/10/03 02:01:42;;;;;;;1135.25;999.90;;;;;;;;;;5011869;28;20041;-81
2021/10/03 02:04:12;;;;;;;1131.22;999.90;;;;;;;;;;5012790;28;20066;-80
2021/10/03 02:06:42;;;;;;;1130.15;999.90;;;;;;;;;;5010877;28;20026;-82
2021/10/03 02:09:09;;;;;;;1139.35;999.90;;;;;;;;;;5005698;28;20034;-79
2021/10/03 02:11:40;;;;;;;1135.63;999.90;;;;;;;;;;5013969;28;20083;-81
2021/10/03 02:14:06;;;;;;;1138.65;999.90;;;;;;;;;;5011168;28;20502;-80
2021/10/03 02:16:32;;;;;;;1132.85;999.90;;;;;;;;;;5013401;28;20057;-79
2021/10/03 02:18:58;;;;;;;1138.15;999.90;;;;;;;;;;5012282;28;20030;-81
2021/10/03 02:21:27;;;;;;;1135.03;999.90;;;;;;;;;;5013647;28;20181;-81
2021/10/03 02:23:53;;;;;;;1134.30;999.90;;;;;;;;;;5011748;28;20036;-78
2021/10/03 02:26:19;;;;;;;1139.38;999.90;;;;;;;;;;5013427;28;20029;-81
2021/10/03 02:28:45;;;;;;;1142.13;999.90;;;;;;;;;;5012755;28;20120;-78
2021/10/03 02:31:12;;;;;;;1145.05;999.90;;;;;;;;;;5012876;28;20022;-84
2021/10/03 02:33:39;;;;;;;1146.32;999.90;;;;;;;;;;5008763;28;20378;-80
2021/10/03 02:36:05;;;;;;;1145.80;999.90;;;;;;;;;;5008462;28;20022;-81
2021/10/03 02:38:33;;;;;;;1145.63;999.90;;;;;;;;;;5013223;28;20386;-82
2021/10/03 02:41:00;;;;;;;1142.82;999.90;;;;;;;;;;5013720;28;20497;-79
2021/10/03 02:43:27;;;;;;;1127.32;999.90;;;;;;;;;;5015038;28;20084;-81
2021/10/03 02:45:54;;;;;;;1125.72;999.90;;;;;;;;;;5015774;28;20079;-81
2021/10/03 02:48:23;;;;;;;1121.50;999.90;;;;;;;;;;5014234;28;20050;-83
2021/10/03 02:50:49;;;;;;;1125.50;999.90;;;;;;;;;;5009681;28;20034;-80
2021/10/03 02:53:18;;;;;;;1121.93;999.90;;;;;;;;;;5008164;28;20034;-81
2021/10/03 02:55:44;;;;;;;1114.90;999.33;;;;;;;;;;5009642;28;20227;-81
2021/10/03 02:58:10;;;;;;;1118.70;999.90;;;;;;;;;;5008883;28;20056;-81
2021/10/03 03:00:36;;;;;;;1113.70;999.03;;;;;;;;;;4994991;28;20510;-80
2021/10/03 03:03:03;;;;;;;1119.82;999.90;;;;;;;;;;4995151;28;20323;-79
2021/10/03 03:05:30;;;;;;;1112.05;998.25;;;;;;;;;;5009876;28;20133;-80
2021/10/03 03:07:56;;;;;;;1121.70;999.90;;;;;;;;;;4999234;28;20685;-81
2021/10/03 03:10:22;;;;;;;1124.35;999.90;;;;;;;;;;5009599;28;20041;-79
2021/10/03 03:12:51;;;;;;;1120.90;999.90;;;;;;;;;;5009812;28;20097;-80
2021/10/03 03:15:17;;;;;;;1121.80;999.90;;;;;;;;;;5010916;28;20393;-81
2021/10/03 03:17:43;;;;;;;1120.90;999.90;;;;;;;;;;5010250;28;20425;-80
2021/10/03 03:20:10;;;;;;;1114.93;999.38;;;;;;;;;;5020179;28;20035;-81
2021/10/03 03:22:36;;;;;;;1115.60;999.65;;;;;;;;;;5011988;28;20084;-79
2021/10/03 03:25:04;;;;;;;1121.85;999.90;;;;;;;;;;5012015;28;20683;-81
2021/10/03 03:27:30;;;;;;;1108.88;997.05;;;;;;;;;;5012737;28;20378;-80
2021/10/03 03:29:56;;;;;;;1117.75;999.90;;;;;;;;;;4993781;28;20034;-81
2021/10/03 03:32:22;;;;;;;1120.10;999.90;;;;;;;;;;5000961;28;20181;-80
2021/10/03 03:34:48;;;;;;;1126.55;999.90;;;;;;;;;;5010283;28;20022;-80
2021/10/03 03:37:15;;;;;;;1126.15;999.90;;;;;;;;;;5007642;28;20097;-80
2021/10/03 03:39:41;;;;;;;1125.25;999.90;;;;;;;;;;5009779;28;20457;-82
2021/10/03 03:42:07;;;;;;;1123.53;999.90;;;;;;;;;;5012191;28;20033;-81
2021/10/03 03:44:33;;;;;;;1111.00;997.95;;;;;;;;;;4996713;28;20018;-81
2021/10/03 03:47:00;;;;;;;1113.55;999.08;;;;;;;;;;5010724;28;20432;-81
2021/10/03 03:49:27;;;;;;;1106.68;995.75;;;;;;;;;;5011049;28;20037;-81
2021/10/03 03:51:53;;;;;;;1100.47;990.83;;;;;;;;;;5011597;28;20033;-80
2021/10/03 03:54:19;;;;;;;1105.50;995.03;;;;;;;;;;5011074;28;20033;-81
2021/10/03 03:56:45;;;;;;;1094.50;984.75;;;;;;;;;;5010351;28;20030;-80
2021/10/03 03:59:11;;;;;;;1090.60;980.92;;;;;;;;;;5008609;28;20038;-82
2021/10/03 04:01:37;;;;;;;1095.45;985.60;;;;;;;;;;5008967;28;20528;-82
2021/10/03 04:04:03;;;;;;;1085.55;976.05;;;;;;;;;;5010343;28;20382;-81
2021/10/03 04:06:29;;;;;;;1082.07;972.42;;;;;;;;;;5007228;28;20546;-80
2021/10/03 04:08:55;;;;;;;1079.03;969.83;;;;;;;;;;5008161;28;20108;-83
2021/10/03 04:11:21;;;;;;;1078.82;969.35;;;;;;;;;;5009414;28;20111;-82
2021/10/03 04:13:47;;;;;;;1073.35;964.38;;;;;;;;;;5009799;28;20026;-82
2021/10/03 04:16:13;;;;;;;1075.97;966.80;;;;;;;;;;5009715;28;20436;-82
2021/10/03 04:18:39;;;;;;;1084.28;974.50;;;;;;;;;;5009195;28;20113;-82
2021/10/03 04:21:05;;;;;;;1075.32;966.25;;;;;;;;;;5010318;28;20554;-81
2021/10/03 04:23:31;;;;;;;1072.38;963.35;;;;;;;;;;5009125;28;20061;-82
2021/10/03 04:25:57;;;;;;;1080.47;971.00;;;;;;;;;;5010448;28;20536;-80
2021/10/03 04:28:25;;;;;;;1070.38;961.65;;;;;;;;;;5010051;28;20033;-82
2021/10/03 04:30:53;;;;;;;1071.97;963.08;;;;;;;;;;4993668;28;20022;-81
2021/10/03 04:33:19;;;;;;;1071.22;962.03;;;;;;;;;;5007313;28;20021;-82
2021/10/03 04:35:46;;;;;;;1077.25;968.10;;;;;;;;;;5008432;28;20030;-81
2021/10/03 04:38:14;;;;;;;1082.47;972.47;;;;;;;;;;5005201;28;20063;-83
2021/10/03 04:40:40;;;;;;;1071.35;962.15;;;;;;;;;;5005533;28;20117;-83
2021/10/03 04:43:08;;;;;;;1082.13;972.33;;;;;;;;;;5009300;28;20155;-83
2021/10/03 04:45:34;;;;;;;1091.30;980.78;;;;;;;;;;5010108;28;20029;-83
2021/10/03 04:48:01;;;;;;;1077.60;967.95;;;;;;;;;;5009513;28;20394;-83
2021/10/03 04:50:27;;;;;;;1077.95;968.50;;;;;;;;;;5008268;28;20038;-83
2021/10/03 04:52:53;;;;;;;1075.88;966.40;;;;;;;;;;5008257;28;20034;-83
2021/10/03 04:55:19;;;;;;;1077.18;967.88;;;;;;;;;;5009517;28;20021;-82
2021/10/03 04:57:47;;;;;;;1075.20;966.00;;;;;;;;;;5009770;28;20053;-81
2021/10/03 05:00:13;;;;;;;1084.22;974.47;;;;;;;;;;5009531;28;20054;-81
2021/10/03 05:02:39;;;;;;;1076.75;967.03;;;;;;;;;;5003689;28;20037;-82
2021/10/03 05:05:06;;;;;;;1079.00;969.40;;;;;;;;;;4991763;28;20033;-82
2021/10/03 05:07:32;;;;;;;1069.47;960.38;;;;;;;;;;5002843;28;20025;-80
2021/10/03 05:09:59;;;;;;;1069.45;960.25;;;;;;;;;;4990416;28;20037;-83
2021/10/03 05:12:27;;;;;;;1068.32;959.53;;;;;;;;;;4992326;28;20022;-83
2021/10/03 05:14:53;;;;;;;1070.93;961.45;;;;;;;;;;5008336;28;20084;-83
2021/10/03 05:17:19;;;;;;;1074.03;964.58;;;;;;;;;;4991841;28;20470;-82
2021/10/03 05:19:45;;;;;;;1070.40;961.60;;;;;;;;;;5007969;28;20050;-82
2021/10/03 05:22:11;;;;;;;1066.70;957.92;;;;;;;;;;5001721;28;20084;-83
2021/10/03 05:24:37;;;;;;;1061.93;953.65;;;;;;;;;;5004044;28;20030;-82
2021/10/03 05:27:03;;;;;;;1063.00;954.60;;;;;;;;;;4999451;28;20097;-83
2021/10/03 05:29:29;;;;;;;1062.93;954.70;;;;;;;;;;4989201;28;20052;-82
2021/10/03 05:31:55;;;;;;;1067.50;959.00;;;;;;;;;;5006709;28;20532;-81
2021/10/03 05:34:21;;;;;;;1068.43;959.47;;;;;;;;;;5007389;28;20026;-81
2021/10/03 05:36:50;;;;;;;1068.50;959.25;;;;;;;;;;5007841;28;20325;-81
2021/10/03 05:39:16;;;;;;;1064.75;955.88;;;;;;;;;;5006418;28;20030;-82
2021/10/03 05:41:42;;;;;;;1069.32;960.25;;;;;;;;;;5006626;28;20036;-81
2021/10/03 05:44:08;;;;;;;1071.65;961.97;;;;;;;;;;5007155;28;20026;-81
2021/10/03 05:46:34;;;;;;;1077.60;967.75;;;;;;;;;;5007847;28;20079;-80
2021/10/03 05:49:00;;;;;;;1074.68;965.63;;;;;;;;;;5006376;28;20026;-81
2021/10/03 05:51:26;;;;;;;1071.03;961.83;;;;;;;;;;5006121;28;20542;-81
2021/10/03 05:53:52;;;;;;;1071.65;962.22;;;;;;;;;;5007807;28;20030;-82
2021/10/03 05:56:18;;;;;;;1069.97;960.83;;;;;;;;;;5008007;28;20402;-83
2021/10/03 05:58:44;;;;;;;1069.75;960.33;;;;;;;;;;5006025;28;20375;-82
2021/10/03 06:01:10;;;;;;;1073.05;963.78;;;;;;;;;;5005034;28;20030;-81
2021/10/03 06:03:37;;;;;;;1069.05;960.03;;;;;;;;;;5007403;28;20030;-81
2021/10/03 06:06:03;;;;;;;1069.30;959.78;;;;;;;;;;5003573;28;20057;-80
2021/10/03 06:08:29;;;;;;;1070.45;961.55;;;;;;;;;;5006412;28;20026;-82
2021/10/03 06:10:55;;;;;;;1075.20;965.70;;;;;;;;;;5007781;28;20022;-81
2021/10/03 06:13:21;;;;;;;1077.47;968.28;;;;;;;;;;5007548;28;20496;-80
2021/10/03 06:15:47;;;;;;;1064.78;955.90;;;;;;;;;;5007343;28;20120;-81
2021/10/03 06:18:13;;;;;;;1064.13;955.85;;;;;;;;;;4983667;28;20061;-80
2021/10/03 06:20:42;;;;;;;1062.30;954.20;;;;;;;;;;4992666;28;20037;-80
2021/10/03 06:23:09;;;;;;;1061.50;953.35;;;;;;;;;;4994772;28;20034;-81
2021/10/03 06:25:37;;;;;;;1062.47;954.47;;;;;;;;;;5027925;28;20038;-81
2021/10/03 06:28:03;;;;;;;1065.13;956.78;;;;;;;;;;4999930;28;20029;-82
2021/10/03 06:30:29;;;;;;;1064.97;956.78;;;;;;;;;;4993556;28;20425;-81
2021/10/03 06:32:57;;;;;;;1066.18;957.95;;;;;;;;;;4994144;28;20036;-81
2021/10/03 06:35:23;;;;;;;1065.57;957.05;;;;;;;;;;5000097;28;20497;-81
2021/10/03 06:37:49;;;;;;;1056.75;948.85;;;;;;;;;;5008758;28;20556;-81
2021/10/03 06:40:17;;;;;;;1062.55;954.47;;;;;;;;;;5007654;28;20065;-82
2021/10/03 06:42:43;;;;;;;1059.78;951.58;;;;;;;;;;4992145;28;20534;-81
2021/10/03 06:45:09;;;;;;;1061.88;953.70;;;;;;;;;;4991937;28;20446;-81
2021/10/03 06:47:35;;;;;;;1068.93;960.45;;;;;;;;;;5008741;28;20030;-81
2021/10/03 06:50:02;;;;;;;1064.78;956.40;;;;;;;;;;5009724;28;20033;-81
2021/10/03 06:52:28;;;;;;;1063.30;955.22;;;;;;;;;;5009490;28;20117;-81
2021/10/03 06:54:54;;;;;;;1071.88;963.30;;;;;;;;;;5009108;28;20065;-82
2021/10/03 06:57:20;;;;;;;1069.75;961.30;;;;;;;;;;5008949;28;20037;-82
2021/10/03 06:59:46;;;;;;;1076.63;967.85;;;;;;;;;;5010881;28;20049;-81
2021/10/03 07:02:25;;;;;;;1079.15;970.25;;;;;;;;;;5009207;28;20014;-80
2021/10/03 07:04:55;;;;;;;1080.28;971.13;;;;;;;;;;5009596;28;20382;-82
2021/10/03 07:07:21;;;;;;;1082.00;972.90;;;;;;;;;;5007898;28;20034;-82
2021/10/03 07:09:47;;;;;;;1082.85;973.30;;;;;;;;;;5007946;28;20280;-80
2021/10/03 07:12:13;;;;;;;1092.05;981.53;;;;;;;;;;5008991;28;20092;-82
2021/10/03 07:14:42;;;;;;;1087.93;977.90;;;;;;;;;;5007912;28;20018;-82
2021/10/03 07:17:08;;;;;;;1079.35;970.15;;;;;;;;;;5007840;28;20105;-82
2021/10/03 07:19:36;;;;;;;1077.22;968.20;;;;;;;;;;5015175;28;20049;-80
2021/10/03 07:22:02;;;;;;;1064.07;955.40;;;;;;;;;;5006171;28;20410;-82
2021/10/03 07:24:28;;;;;;;1071.50;962.58;;;;;;;;;;5007477;28;20038;-83
2021/10/03 07:26:55;;;;;;;1068.70;959.92;;;;;;;;;;5009533;28;20033;-82
2021/10/03 07:29:21;;;;;;;1067.30;958.53;;;;;;;;;;5006665;28;20486;-80
2021/10/03 07:31:47;;;;;;;1053.82;945.55;;;;;;;;;;5018233;28;20030;-80
2021/10/03 07:34:13;;;;;;;1059.45;950.97;;;;;;;;;;5008363;28;20017;-84
2021/10/03 07:36:39;;;;;;;1049.95;941.65;;;;;;;;;;5012083;28;20034;-83
2021/10/03 07:39:06;;;;;;;1047.63;939.83;;;;;;;;;;5008870;28;20703;-83
2021/10/03 07:41:32;;;;;;;1046.63;939.05;;;;;;;;;;5006878;28;20084;-82
2021/10/03 07:43:58;;;;;;;1039.28;931.88;;;;;;;;;;5008806;28;20121;-84
2021/10/03 07:46:24;;;;;;;1035.05;927.75;;;;;;;;;;5007937;28;20525;-82
2021/10/03 07:48:52;;;;;;;1023.58;916.70;;;;;;;;;;5007732;28;20030;-82
2021/10/03 07:51:18;;;;;;;1025.53;918.70;;;;;;;;;;5007324;28;20026;-81
2021/10/03 07:53:44;;;;;;;1025.10;918.20;;;;;;;;;;5008086;28;20022;-81
2021/10/03 07:56:10;;;;;;;1021.08;914.22;;;;;;;;;;5007125;28;20064;-82
2021/10/03 07:58:36;;;;;;;1025.93;918.63;;;;;;;;;;5007217;28;20371;-83
2021/10/03 08:01:02;;;;;;;1016.28;909.65;;;;;;;;;;5007023;28;20425;-84
2021/10/03 08:03:28;;;;;;;1025.03;917.72;;;;;;;;;;5007082;28;20493;-82
2021/10/03 08:05:54;;;;;;;1029.53;922.03;;;;;;;;;;5005855;28;20034;-83
2021/10/03 08:08:21;;;;;;;1031.65;924.10;;;;;;;;;;5007309;28;20073;-83
2021/10/03 08:10:47;;;;;;;1033.18;925.55;;;;;;;;;;5024529;28;20034;-84
2021/10/03 08:13:13;;;;;;;1037.28;929.70;;;;;;;;;;5007395;28;20025;-81
2021/10/03 08:15:41;;;;;;;1038.32;930.33;;;;;;;;;;5007576;28;20030;-83
2021/10/03 08:18:07;;;;;;;1039.13;931.15;;;;;;;;;;5006922;28;20029;-82
2021/10/03 08:20:33;;;;;;;1053.72;944.78;;;;;;;;;;5007999;28;20402;-82
2021/10/03 08:23:00;;;;;;;1044.80;936.70;;;;;;;;;;5009377;28;20033;-83
2021/10/03 08:25:26;;;;;;;1038.70;930.70;;;;;;;;;;5007181;28;20535;-82
2021/10/03 08:27:53;;;;;;;1049.50;940.90;;;;;;;;;;5006424;28;20038;-82
2021/10/03 08:30:19;;;;;;;1040.43;932.33;;;;;;;;;;5007405;28;20045;-82
2021/10/03 08:32:45;;;;;;;1046.80;938.45;;;;;;;;;;5007393;28;20389;-83
2021/10/03 08:35:12;;;;;;;1047.97;938.92;;;;;;;;;;5005581;28;20026;-83
2021/10/03 08:37:39;;;;;;;1049.35;941.17;;;;;;;;;;5009752;28;20059;-83
2021/10/03 08:40:07;;;;;;;1053.78;944.75;;;;;;;;;;5001840;28;20314;-81
2021/10/03 08:42:34;;;;;;;1040.50;932.35;;;;;;;;;;5007189;28;20505;-82
2021/10/03 08:45:00;;;;;;;1044.97;936.63;;;;;;;;;;5005943;28;20108;-82
2021/10/03 08:47:26;;;;;;;1046.43;938.25;;;;;;;;;;5006305;28;20026;-82
2021/10/03 08:49:57;;;;;;;1046.55;938.45;;;;;;;;;;5006326;28;20084;-82
2021/10/03 08:52:27;;;;;;;1052.05;943.47;;;;;;;;;;5006154;28;20026;-82
2021/10/03 08:54:53;;;;;;;1045.43;937.53;;;;;;;;;;5006099;28;20522;-82
2021/10/03 08:57:19;;;;;;;1045.80;937.80;;;;;;;;;;5003434;28;20030;-83
2021/10/03 09:00:01;;;;;;;1041.65;933.80;;;;;;;;;;5006187;28;20136;-83
2021/10/03 09:02:27;;;;;;;1047.65;939.20;;;;;;;;;;5007142;28;20037;-82
2021/10/03 09:04:58;;;;;;;1052.40;943.90;;;;;;;;;;5006703;28;20034;-83
2021/10/03 09:07:24;;;;;;;;;;;;;;;;;;5004950;28;21398;-82
2021/10/03 09:09:55;;;;;;;1027.20;919.60;;;;;;;;;;5022821;28;20365;-83
2021/10/03 09:12:26;;;;;;;1042.05;934.20;;;;;;;;;;5007376;28;20030;-83
2021/10/03 09:14:52;;;;;;;1049.68;941.35;;;;;;;;;;5006063;28;20084;-84
2021/10/03 09:17:18;;;;;;;1058.63;950.13;;;;;;;;;;5006970;28;20136;-83
2021/10/03 09:20:03;;;;;;;1060.95;952.53;;;;;;;;;;5006268;28;20508;-84
2021/10/03 09:22:29;;;;;;;1052.40;944.25;;;;;;;;;;5000886;28;20030;-84
2021/10/03 09:24:55;;;;;;;1059.00;950.60;;;;;;;;;;5006265;28;20056;-84
2021/10/03 09:27:22;;;;;;;1072.70;963.60;;;;;;;;;;5004717;28;20092;-84
2021/10/03 09:29:48;;;;;;;1064.85;956.25;;;;;;;;;;4997210;28;20482;-84
2021/10/03 09:32:15;;;;;;;1056.15;948.38;;;;;;;;;;5011439;28;20053;-84
2021/10/03 09:34:45;;;;;;;1057.97;950.05;;;;;;;;;;5005709;28;20061;-83
2021/10/03 09:37:15;;;;;;;1047.13;939.88;;;;;;;;;;5003225;28;20029;-85
2021/10/03 09:39:41;;;;;;;1043.93;936.97;;;;;;;;;;5005968;28;20038;-85
2021/10/03 09:42:14;;;;;;;1045.50;938.17;;;;;;;;;;5005859;28;20033;-85
2021/10/03 09:45:00;;;;;;;1049.63;942.35;;;;;;;;;;5006544;28;20032;-85
2021/10/03 09:47:26;;;;;;;1044.50;937.25;;;;;;;;;;5005184;28;20029;-84
2021/10/03 09:49:53;;;;;;;1053.30;945.88;;;;;;;;;;5006066;28;20019;-83
2021/10/03 09:52:19;;;;;;;1062.55;954.78;;;;;;;;;;5008106;28;20030;-83
2021/10/03 09:54:47;;;;;;;1064.50;956.60;;;;;;;;;;5006186;28;20083;-83
2021/10/03 09:57:15;;;;;;;1051.00;943.92;;;;;;;;;;5007765;28;20022;-84
2021/10/03 09:59:42;;;;;;;1058.38;950.67;;;;;;;;;;5009609;28;20540;-83
2021/10/03 10:02:08;;;;;;;1052.30;945.22;;;;;;;;;;5009546;28;20497;-84
2021/10/03 10:04:34;;;;;;;1052.72;945.13;;;;;;;;;;5008763;28;20025;-84
2021/10/03 10:07:00;;;;;;;1049.63;942.50;;;;;;;;;;5006304;28;20025;-84
2021/10/03 10:09:29;;;;;;;1048.63;941.67;;;;;;;;;;5014146;28;20068;-84
2021/10/03 10:12:06;;;;;;;1057.78;950.03;;;;;;;;;;5007583;28;20084;-83
2021/10/03 10:14:33;;;;;;;1053.80;946.63;;;;;;;;;;5007019;28;20067;-84
2021/10/03 10:17:04;;;;;;;1059.80;952.20;;;;;;;;;;5006436;28;20148;-83
2021/10/03 10:19:39;;;;;;;1059.28;951.90;;;;;;;;;;5010997;28;20026;-84
2021/10/03 10:22:14;;;;;;;1062.82;954.97;;;;;;;;;;5009779;28;20073;-84
2021/10/03 10:24:46;;;;;;;1076.78;968.20;;;;;;;;;;5011487;28;20037;-83
2021/10/03 10:27:21;;;;;;;1056.70;949.47;;;;;;;;;;5013871;28;20337;-83
2021/10/03 10:30:00;;;;;;;1062.13;954.17;;;;;;;;;;5039243;28;20214;-83
2021/10/03 10:32:30;;;;;;;1071.63;963.13;;;;;;;;;;5009489;28;20035;-84
2021/10/03 10:34:56;;;;;;;;;;;;;;;;;;5018022;28;20064;-84
2021/10/03 10:37:23;;;;;;;1042.25;934.85;;;;;;;;;;5015808;28;20401;-84
2021/10/03 10:40:08;;;;;;;1058.18;950.20;;;;;;;;;;5010562;28;20603;-84
2021/10/03 10:42:34;;;;;;;1057.45;949.92;;;;;;;;;;5005036;28;20049;-84
2021/10/03 10:45:00;;;;;;;1066.53;958.53;;;;;;;;;;5010470;28;20156;-84
2021/10/03 10:47:26;;;;;;;1069.07;961.05;;;;;;;;;;5009014;28;20038;-83
2021/10/03 10:49:53;;;;;;;1070.40;962.38;;;;;;;;;;5009051;28;20383;-84
2021/10/03 10:52:19;;;;;;;1070.45;962.40;;;;;;;;;;5008842;28;20064;-83
2021/10/03 10:55:07;;;;;;;1068.70;960.60;;;;;;;;;;5008411;28;20490;-83
2021/10/03 10:57:34;;;;;;;1070.00;961.60;;;;;;;;;;5010741;28;20410;-84
2021/10/03 11:00:18;;;;;;;1079.20;970.80;;;;;;;;;;5009287;28;20049;-84
2021/10/03 11:02:48;;;;;;;1081.28;972.40;;;;;;;;;;5008846;28;20471;-84
2021/10/03 11:05:46;;;;;;;1080.30;971.60;;;;;;;;;;5000683;28;20048;-84
2021/10/03 11:08:16;;;;;;;1080.22;971.15;;;;;;;;;;4999974;28;20030;-83
2021/10/03 11:10:57;;;;;;;1080.80;971.33;;;;;;;;;;5004233;28;20034;-84
2021/10/03 11:13:41;;;;;;;1068.53;960.15;;;;;;;;;;5009025;28;20073;-86
2021/10/03 11:16:20;;;;;;;1060.30;952.50;;;;;;;;;;5010643;28;20037;-84
2021/10/03 11:18:51;;;;;;;1066.88;958.28;;;;;;;;;;5008064;28;20120;-85
2021/10/03 11:21:19;;;;;;;;;;;;;;;;;;5009579;28;20045;-85
2021/10/03 11:23:46;;;;;;;1046.68;938.58;;;;;;;;;;5008585;28;20011;-84
2021/10/03 11:26:12;;;;;;;1055.93;947.83;;;;;;;;;;5009896;28;20014;-85
2021/10/03 11:28:52;;;;;;;1059.18;951.42;;;;;;;;;;5009086;28;20080;-85
2021/10/03 11:31:36;;;;;;;1055.57;947.83;;;;;;;;;;5018586;28;20034;-85
2021/10/03 11:34:03;;;;;;;1052.75;944.72;;;;;;;;;;5011039;28;20048;-84
2021/10/03 11:36:29;;;;;;;1058.75;950.50;;;;;;;;;;5005609;28;20426;-85
2021/10/03 11:39:02;;;;;;;1068.85;960.13;;;;;;;;;;5008271;28;20034;-85
2021/10/03 11:41:27;;;;;;;1069.65;961.10;;;;;;;;;;5008031;28;20242;-85
2021/10/03 11:43:54;;;;;;;1066.18;957.80;;;;;;;;;;5008843;28;20036;-85
2021/10/03 11:46:20;;;;;;;1060.22;952.58;;;;;;;;;;5013540;28;20481;-86
2021/10/03 11:48:51;;;;;;;1061.72;954.13;;;;;;;;;;5008021;28;20417;-85
2021/10/03 11:51:17;;;;;;;1071.18;962.97;;;;;;;;;;5011311;28;20084;-84
2021/10/03 11:53:47;;;;;;;1061.10;953.38;;;;;;;;;;5006882;28;20026;-85
2021/10/03 11:56:15;;;;;;;1070.47;962.33;;;;;;;;;;5007985;28;20020;-85
2021/10/03 11:58:42;;;;;;;1063.35;955.75;;;;;;;;;;5009124;28;20049;-86
2021/10/03 12:01:09;;;;;;;1064.53;956.97;;;;;;;;;;5008429;28;20025;-86
2021/10/03 12:03:51;;;;;;;1061.28;953.83;;;;;;;;;;5007774;28;20109;-85
2021/10/03 12:06:30;;;;;;;1059.40;951.88;;;;;;;;;;5002253;28;20084;-87
2021/10/03 12:08:57;;;;;;;1053.18;946.30;;;;;;;;;;5008508;28;20559;-84
2021/10/03 12:11:23;;;;;;;1062.97;955.47;;;;;;;;;;5007591;28;20034;-84
2021/10/03 12:13:59;;;;;;;1064.45;956.95;;;;;;;;;;5001882;28;20195;-82
2021/10/03 12:16:31;;;;;;;1061.72;954.05;;;;;;;;;;5009330;28;20056;-84
2021/10/03 12:19:01;;;;;;;1064.63;956.97;;;;;;;;;;5007487;28;20034;-83
2021/10/03 12:21:29;;;;;;;1067.72;960.08;;;;;;;;;;5007565;28;20061;-83
2021/10/03 12:24:01;;;;;;;1068.32;960.28;;;;;;;;;;5011178;28;20085;-83
2021/10/03 12:26:30;;;;;;;1069.32;961.13;;;;;;;;;;5007748;28;20041;-83
2021/10/03 12:28:59;;;;;;;1079.57;970.95;;;;;;;;;;5008310;28;20041;-84
2021/10/03 12:31:35;;;;;;;1086.20;977.10;;;;;;;;;;5005879;28;20076;-83
2021/10/03 12:34:01;;;;;;;1083.03;973.58;;;;;;;;;;5008424;28;20394;-83
2021/10/03 12:39:12;;;;;;;1072.55;963.50;;;;;;;;;;5011305;28;20580;-83
2021/10/03 12:41:38;;;;;;;1083.85;974.58;;;;;;;;;;5012805;28;20066;-84
2021/10/03 12:44:04;;;;;;;1088.88;978.97;;;;;;;;;;5007956;28;20399;-84
2021/10/03 12:46:30;;;;;;;1090.25;980.47;;;;;;;;;;5006664;28;20069;-85
2021/10/03 12:48:56;;;;;;;1089.15;979.45;;;;;;;;;;5003104;28;20553;-84
2021/10/03 12:51:22;;;;;;;1074.93;966.05;;;;;;;;;;5011635;28;20383;-83
2021/10/03 12:53:48;;;;;;;1071.63;962.60;;;;;;;;;;5006321;28;20026;-84
2021/10/03 12:56:17;;;;;;;1071.55;962.85;;;;;;;;;;5007050;28;20022;-83
2021/10/03 12:58:43;;;;;;;1073.43;964.25;;;;;;;;;;5001572;28;20034;-83
2021/10/03 13:01:10;;;;;;;1080.78;971.50;;;;;;;;;;5004420;28;20040;-82
2021/10/03 13:03:38;;;;;;;1071.93;963.10;;;;;;;;;;5006537;28;20018;-83
2021/10/03 13:06:05;;;;;;;1069.22;960.72;;;;;;;;;;5005418;28;20382;-82
2021/10/03 13:08:31;;;;;;;1062.30;954.33;;;;;;;;;;5006499;28;20018;-84
2021/10/03 13:10:57;;;;;;;1054.75;947.28;;;;;;;;;;5006260;28;20026;-85
2021/10/03 13:13:23;;;;;;;1048.25;940.97;;;;;;;;;;5007102;28;20026;-86
2021/10/03 13:15:49;;;;;;;1048.47;941.47;;;;;;;;;;5008764;28;20406;-85
2021/10/03 13:18:15;;;;;;;1059.75;952.13;;;;;;;;;;5006697;28;20026;-85
2021/10/03 13:20:41;;;;;;;1054.43;946.67;;;;;;;;;;5007240;28;20502;-85
2021/10/03 13:23:07;;;;;;;1050.90;943.55;;;;;;;;;;5005880;28;20585;-84
2021/10/03 13:25:33;;;;;;;1055.25;947.47;;;;;;;;;;5006873;28;20034;-85
2021/10/03 13:27:59;;;;;;;1047.10;939.88;;;;;;;;;;5006886;28;20346;-85
2021/10/03 13:30:26;;;;;;;1060.68;952.67;;;;;;;;;;5007087;28;20077;-85
2021/10/03 13:32:52;;;;;;;1056.88;949.00;;;;;;;;;;5005892;28;20378;-87
2021/10/03 13:35:18;;;;;;;1068.95;960.20;;;;;;;;;;5005837;28;20121;-84
2021/10/03 13:37:44;;;;;;;1060.47;952.35;;;;;;;;;;5005980;28;20416;-87
2021/10/03 13:40:11;;;;;;;1063.65;955.13;;;;;;;;;;5005754;28;20025;-85
2021/10/03 13:42:38;;;;;;;1052.05;944.00;;;;;;;;;;5006393;28;20087;-83
2021/10/03 13:45:05;;;;;;;1045.97;938.28;;;;;;;;;;5006470;28;20137;-84
2021/10/03 13:47:32;;;;;;;1033.80;926.42;;;;;;;;;;5007424;28;20493;-83